createdAt,value
2022-11-29T00:00:32.183Z,23.98
2022-11-29T00:03:04.412Z,23.27
2022-11-29T00:05:38.313Z,23.05
2022-11-29T00:08:08.987Z,22.58
2022-11-29T00:10:42.288Z,23.18
2022-11-29T00:13:14.066Z,22.43
2022-11-29T00:15:44.616Z,22.87
2022-11-29T00:18:15.144Z,22.13
2022-11-29T00:20:46.860Z,22.32
2022-11-29T00:23:22.217Z,21.75
2022-11-29T00:25:53.206Z,22.65
2022-11-29T00:28:23.754Z,23.10
2022-11-29T00:30:55.790Z,22.82
2022-11-29T00:33:26.968Z,22.58
2022-11-29T00:35:59.129Z,22.05
2022-11-29T00:38:29.791Z,21.62
2022-11-29T00:41:00.340Z,22.67
2022-11-29T00:43:30.916Z,22.52
2022-11-29T00:46:03.413Z,22.45
2022-11-29T00:48:35.046Z,22.35
2022-11-29T00:51:07.987Z,21.68
2022-11-29T00:53:39.946Z,22.02
2022-11-29T00:56:19.533Z,21.70
2022-11-29T00:58:50.298Z,22.22
2022-11-29T01:01:20.981Z,22.30
2022-11-29T01:03:51.934Z,21.48
2022-11-29T01:06:24.844Z,22.67
2022-11-29T01:08:55.393Z,22.45
2022-11-29T01:11:28.858Z,22.42
2022-11-29T01:14:01.990Z,23.07
2022-11-29T01:16:33.183Z,22.93
2022-11-29T01:19:07.543Z,22.73
2022-11-29T01:21:38.018Z,23.62
2022-11-29T01:24:13.834Z,24.60
2022-11-29T01:26:41.943Z,24.25
2022-11-29T01:29:14.210Z,23.98
2022-11-29T01:31:45.431Z,24.27
2022-11-29T01:34:15.984Z,25.25
2022-11-29T01:36:47.123Z,25.80
2022-11-29T01:39:18.523Z,25.92
2022-11-29T01:41:49.048Z,26.62
2022-11-29T01:44:22.547Z,28.05
2022-11-29T01:46:54.670Z,25.68
2022-11-29T01:49:36.825Z,25.77
2022-11-29T01:52:13.690Z,26.70
2022-11-29T01:54:47.490Z,27.27
2022-11-29T01:57:19.479Z,28.75
2022-11-29T01:59:58.893Z,28.30
2022-11-29T02:02:32.499Z,28.42
2022-11-29T02:05:05.528Z,26.05
2022-11-29T02:07:37.035Z,27.62
2022-11-29T02:10:10.628Z,27.93
2022-11-29T02:13:03.641Z,26.73
2022-11-29T02:15:55.513Z,28.38
2022-11-29T02:18:40.545Z,28.05
2022-11-29T02:21:23.033Z,27.77
2022-11-29T02:24:05.673Z,29.05
2022-11-29T02:27:01.062Z,28.12
2022-11-29T02:29:52.780Z,29.45
2022-11-29T02:32:49.342Z,29.55
2022-11-29T02:35:39.713Z,29.25
2022-11-29T02:38:28.158Z,30.40
2022-11-29T02:41:22.261Z,30.70
2022-11-29T02:43:58.538Z,29.77
2022-11-29T02:46:57.092Z,29.02
2022-11-29T02:49:56.522Z,30.92
2022-11-29T02:52:49.977Z,30.65
2022-11-29T02:55:23.433Z,30.15
2022-11-29T02:58:22.666Z,30.75
2022-11-29T03:01:15.964Z,32.15
2022-11-29T03:03:49.615Z,29.92
2022-11-29T03:06:46.025Z,30.02
2022-11-29T03:09:28.913Z,31.02
2022-11-29T03:15:35.144Z,30.10
2022-11-29T03:21:31.757Z,31.68
2022-11-29T03:24:05.974Z,29.98
2022-11-29T03:26:51.638Z,29.87
2022-11-29T03:29:33.121Z,29.75
2022-11-29T03:32:13.033Z,31.30
2022-11-29T03:35:04.967Z,31.68
2022-11-29T03:37:57.230Z,30.43
2022-11-29T03:40:30.699Z,30.17
2022-11-29T03:43:04.195Z,30.35
2022-11-29T03:45:46.759Z,29.32
2022-11-29T03:48:32.386Z,29.63
2022-11-29T03:51:09.041Z,28.47
2022-11-29T03:53:54.868Z,29.65
2022-11-29T03:56:34.492Z,29.63
2022-11-29T03:59:32.138Z,29.07
2022-11-29T04:02:24.475Z,27.82
2022-11-29T04:05:32.589Z,26.37
2022-11-29T04:08:25.808Z,28.35
2022-11-29T04:11:05.419Z,27.73
2022-11-29T04:13:55.778Z,27.20
2022-11-29T04:17:07.691Z,26.87
2022-11-29T04:19:47.731Z,27.37
2022-11-29T04:22:37.706Z,27.52
2022-11-29T04:25:16.899Z,27.17
2022-11-29T04:27:56.248Z,26.73
2022-11-29T04:30:31.468Z,27.30
2022-11-29T04:33:27.775Z,26.35
2022-11-29T04:36:35.225Z,27.37
2022-11-29T04:39:25.527Z,26.82
2022-11-29T04:42:08.203Z,26.85
2022-11-29T04:45:06.889Z,26.37
2022-11-29T04:47:51.600Z,26.37
2022-11-29T04:50:41.387Z,26.45
2022-11-29T04:53:24.506Z,25.97
2022-11-29T04:56:07.245Z,26.40
2022-11-29T04:59:02.288Z,27.22
2022-11-29T05:01:38.848Z,26.50
2022-11-29T05:04:27.676Z,27.20
2022-11-29T05:07:13.510Z,26.77
2022-11-29T05:10:16.158Z,26.93
2022-11-29T05:12:55.190Z,26.90
2022-11-29T05:15:30.633Z,26.05
2022-11-29T05:18:21.087Z,25.12
2022-11-29T05:21:00.817Z,25.40
2022-11-29T05:23:58.470Z,26.73
2022-11-29T05:26:41.152Z,26.23
2022-11-29T05:29:27.443Z,27.20
2022-11-29T05:32:05.774Z,26.95
2022-11-29T05:35:02.038Z,27.58
2022-11-29T05:37:47.409Z,27.00
2022-11-29T05:40:42.509Z,27.50
2022-11-29T05:43:32.992Z,27.52
2022-11-29T05:46:12.996Z,26.87
2022-11-29T05:49:01.604Z,27.65
2022-11-29T05:51:46.693Z,26.97
2022-11-29T05:54:28.930Z,20.45
2022-11-29T05:57:20.388Z,27.45
2022-11-29T05:59:52.357Z,26.82
2022-11-29T06:02:48.546Z,28.02
2022-11-29T06:05:23.790Z,28.27
2022-11-29T06:08:15.189Z,26.68
2022-11-29T06:11:06.047Z,28.80
2022-11-29T06:13:51.395Z,28.85
2022-11-29T06:16:44.198Z,28.35
2022-11-29T06:19:33.267Z,28.90
2022-11-29T06:22:26.309Z,28.98
2022-11-29T06:25:17.372Z,27.73
2022-11-29T06:28:07.412Z,29.00
2022-11-29T06:30:55.508Z,28.17
2022-11-29T06:36:14.324Z,27.07
2022-11-29T06:38:44.991Z,27.40
2022-11-29T06:41:21.242Z,27.90
2022-11-29T06:43:52.241Z,26.33
2022-11-29T06:46:34.636Z,26.02
2022-11-29T06:49:25.927Z,27.30
2022-11-29T06:52:14.462Z,27.32
2022-11-29T06:55:07.951Z,28.15
2022-11-29T06:57:51.017Z,26.95
2022-11-29T07:00:25.493Z,28.02
2022-11-29T07:03:18.060Z,27.60
2022-11-29T07:05:48.862Z,27.65
2022-11-29T07:08:22.244Z,27.07
2022-11-29T07:10:55.725Z,28.38
2022-11-29T07:13:26.601Z,26.75
2022-11-29T07:16:08.934Z,27.75
2022-11-29T07:18:47.876Z,26.68
2022-11-29T07:21:24.314Z,27.62
2022-11-29T07:24:09.647Z,26.82
2022-11-29T07:26:46.053Z,27.20
2022-11-29T07:29:19.593Z,27.77
2022-11-29T07:32:10.040Z,26.45
2022-11-29T07:35:03.286Z,27.80
2022-11-29T07:37:39.527Z,29.02
2022-11-29T07:40:27.339Z,28.57
2022-11-29T07:43:26.952Z,30.17
2022-11-29T07:45:58.377Z,32.28
2022-11-29T07:48:29.246Z,32.73
2022-11-29T07:51:01.712Z,30.85
2022-11-29T07:53:32.177Z,29.48
2022-11-29T07:56:02.619Z,29.07
2022-11-29T07:58:33.097Z,28.75
2022-11-29T08:01:04.890Z,27.93
2022-11-29T08:03:36.058Z,28.85
2022-11-29T08:06:06.528Z,30.27
2022-11-29T08:08:42.354Z,30.45
2022-11-29T08:11:14.349Z,31.35
2022-11-29T08:13:45.961Z,30.80
2022-11-29T08:16:19.924Z,29.98
2022-11-29T08:18:50.466Z,34.08
2022-11-29T08:21:21.027Z,33.13
2022-11-29T08:23:52.289Z,35.78
2022-11-29T08:26:26.915Z,30.08
2022-11-29T08:28:55.217Z,28.10
2022-11-29T08:31:25.775Z,29.02
2022-11-29T08:33:56.206Z,29.37
2022-11-29T08:36:26.895Z,33.73
2022-11-29T08:39:05.981Z,32.25
2022-11-29T08:41:30.233Z,29.23
2022-11-29T08:44:00.637Z,30.27
2022-11-29T08:46:32.761Z,30.97
2022-11-29T08:49:03.282Z,30.92
2022-11-29T08:51:33.769Z,32.23
2022-11-29T08:54:04.244Z,31.37
2022-11-29T08:57:31.112Z,30.37
2022-11-29T08:59:07.308Z,32.30
2022-11-29T09:01:37.822Z,32.93
2022-11-29T09:04:11.020Z,33.67
2022-11-29T09:06:47.781Z,33.53
2022-11-29T09:09:18.870Z,32.53
2022-11-29T09:11:49.862Z,31.60
2022-11-29T09:14:22.025Z,31.55
2022-11-29T09:16:52.621Z,32.33
2022-11-29T09:19:23.184Z,31.70
2022-11-29T09:21:53.757Z,30.17
2022-11-29T09:24:24.280Z,31.55
2022-11-29T09:26:54.777Z,30.55
2022-11-29T09:29:25.281Z,29.45
2022-11-29T09:31:56.146Z,30.80
2022-11-29T09:34:26.749Z,30.80
2022-11-29T09:36:57.247Z,32.38
2022-11-29T09:39:27.665Z,33.05
2022-11-29T09:42:09.886Z,35.52
2022-11-29T09:44:49.698Z,34.33
2022-11-29T09:47:23.080Z,36.33
2022-11-29T09:49:59.269Z,34.05
2022-11-29T09:52:50.096Z,32.45
2022-11-29T09:55:50.743Z,31.07
2022-11-29T09:58:23.736Z,29.98
2022-11-29T10:00:58.586Z,30.25
2022-11-29T10:03:34.835Z,30.60
2022-11-29T10:06:11.132Z,32.20
2022-11-29T10:08:47.159Z,32.88
2022-11-29T10:11:25.673Z,34.05
2022-11-29T10:14:18.055Z,32.95
2022-11-29T10:16:56.920Z,31.80
2022-11-29T10:19:30.390Z,30.97
2022-11-29T10:22:07.259Z,30.10
2022-11-29T10:24:39.624Z,31.30
2022-11-29T10:27:18.499Z,31.25
2022-11-29T10:29:50.653Z,32.93
2022-11-29T10:32:23.569Z,30.95
2022-11-29T10:34:56.735Z,30.88
2022-11-29T10:37:29.351Z,29.35
2022-11-29T10:40:04.394Z,29.02
2022-11-29T10:42:50.260Z,28.50
2022-11-29T10:45:35.378Z,30.17
2022-11-29T10:48:14.471Z,25.00
2022-11-29T10:50:46.747Z,29.63
2022-11-29T10:53:20.303Z,29.23
2022-11-29T10:56:08.887Z,30.37
2022-11-29T10:58:42.318Z,30.52
2022-11-29T11:01:15.053Z,31.48
2022-11-29T11:03:52.616Z,33.25
2022-11-29T11:06:22.915Z,30.72
2022-11-29T11:08:58.726Z,31.37
2022-11-29T11:11:32.281Z,30.50
2022-11-29T11:14:08.378Z,30.97
2022-11-29T11:16:38.884Z,34.10
2022-11-29T11:19:34.559Z,30.72
2022-11-29T11:22:05.921Z,31.20
2022-11-29T11:24:39.325Z,35.70
2022-11-29T11:27:09.976Z,34.63
2022-11-29T11:29:43.328Z,32.20
2022-11-29T11:32:21.326Z,32.48
2022-11-29T11:35:00.174Z,30.35
2022-11-29T11:37:32.813Z,29.25
2022-11-29T11:40:06.267Z,29.85
2022-11-29T11:42:39.953Z,30.43
2022-11-29T11:45:16.405Z,29.48
2022-11-29T11:47:53.141Z,31.68
2022-11-29T11:50:32.784Z,33.73
2022-11-29T11:53:08.936Z,33.02
2022-11-29T11:55:42.507Z,31.60
2022-11-29T11:58:18.953Z,32.50
2022-11-29T12:01:05.899Z,31.42
2022-11-29T12:03:39.272Z,32.15
2022-11-29T12:06:27.935Z,33.23
2022-11-29T12:09:07.477Z,33.15
2022-11-29T12:11:55.881Z,32.90
2022-11-29T12:14:29.323Z,30.85
2022-11-29T12:17:02.713Z,30.25
2022-11-29T12:19:38.970Z,30.52
2022-11-29T12:22:13.523Z,31.50
2022-11-29T12:24:47.393Z,32.93
2022-11-29T12:27:18.319Z,31.75
2022-11-29T12:29:48.840Z,30.97
2022-11-29T12:32:30.818Z,29.02
2022-11-29T12:35:14.777Z,30.35
2022-11-29T12:37:54.703Z,31.50
2022-11-29T12:40:45.949Z,30.48
2022-11-29T12:43:25.151Z,29.20
2022-11-29T12:46:10.499Z,30.50
2022-11-29T12:48:55.997Z,29.85
2022-11-29T12:51:35.317Z,31.07
2022-11-29T12:54:17.587Z,29.63
2022-11-29T12:57:08.369Z,27.70
2022-11-29T12:59:42.312Z,28.83
2022-11-29T13:02:30.729Z,28.17
2022-11-29T13:05:04.131Z,27.67
2022-11-29T13:07:40.441Z,27.90
2022-11-29T13:10:30.111Z,28.20
2022-11-29T13:13:18.633Z,27.98
2022-11-29T13:15:54.958Z,28.30
2022-11-29T13:18:28.414Z,28.00
2022-11-29T13:21:04.605Z,29.10
2022-11-29T13:26:25.601Z,30.27
2022-11-29T13:28:56.505Z,30.10
2022-11-29T13:31:27.623Z,30.20
2022-11-29T13:34:03.934Z,29.92
2022-11-29T13:37:10.999Z,30.48
2022-11-29T13:40:08.542Z,31.07
2022-11-29T13:42:45.441Z,29.00
2022-11-29T13:45:43.473Z,32.35
2022-11-29T13:48:31.806Z,34.08
2022-11-29T13:51:21.801Z,30.23
2022-11-29T13:53:52.788Z,28.70
2022-11-29T13:56:40.273Z,28.98
2022-11-29T13:59:13.675Z,30.08
2022-11-29T14:01:54.201Z,30.40
2022-11-29T14:04:33.563Z,29.10
2022-11-29T14:07:06.984Z,29.50
2022-11-29T14:09:43.388Z,29.00
2022-11-29T14:12:39.574Z,30.92
2022-11-29T14:15:25.062Z,29.23
2022-11-29T14:18:02.531Z,35.73
2022-11-29T14:20:43.265Z,34.85
2022-11-29T14:23:19.454Z,36.50
2022-11-29T14:26:01.877Z,80.47
2022-11-29T14:28:34.832Z,44.73
2022-11-29T14:31:07.635Z,37.48
2022-11-29T14:33:47.286Z,33.67
2022-11-29T14:36:32.912Z,29.05
2022-11-29T14:39:32.446Z,27.02
2022-11-29T14:42:18.967Z,27.62
2022-11-29T14:44:59.942Z,27.93
2022-11-29T14:47:39.253Z,27.13
2022-11-29T14:50:11.765Z,27.02
2022-11-29T14:52:54.448Z,27.58
2022-11-29T14:55:30.815Z,27.15
2022-11-29T14:58:06.989Z,28.00
2022-11-29T15:00:43.175Z,28.20
2022-11-29T15:03:16.554Z,28.83
2022-11-29T15:05:51.624Z,26.85
2022-11-29T15:08:35.185Z,26.68
2022-11-29T15:11:08.606Z,28.52
2022-11-29T15:13:42.340Z,30.65
2022-11-29T15:16:18.441Z,29.60
2022-11-29T15:18:57.783Z,29.85
2022-11-29T15:21:49.843Z,29.48
2022-11-29T15:24:24.972Z,30.72
2022-11-29T15:27:01.122Z,30.75
2022-11-29T15:29:33.131Z,30.32
2022-11-29T15:32:06.815Z,31.57
2022-11-29T15:34:40.266Z,30.65
2022-11-29T15:37:25.911Z,32.50
2022-11-29T15:40:14.640Z,28.45
2022-11-29T15:42:48.606Z,29.67
2022-11-29T15:45:34.022Z,28.42
2022-11-29T15:48:22.612Z,27.25
2022-11-29T15:51:00.162Z,26.87
2022-11-29T15:53:49.839Z,26.85
2022-11-29T15:56:35.181Z,25.43
2022-11-29T15:59:08.582Z,27.77
2022-11-29T16:01:41.233Z,26.60
2022-11-29T16:04:20.619Z,28.07
2022-11-29T16:06:52.075Z,25.92
2022-11-29T16:09:37.614Z,26.40
2022-11-29T16:12:12.986Z,24.60
2022-11-29T16:15:01.337Z,25.15
2022-11-29T16:17:35.041Z,26.15
2022-11-29T16:20:22.390Z,26.50
2022-11-29T16:23:11.829Z,26.30
2022-11-29T16:26:09.438Z,27.30
2022-11-29T16:28:48.781Z,27.15
2022-11-29T16:31:24.790Z,27.90
2022-11-29T16:33:55.289Z,28.57
2022-11-29T16:36:27.712Z,30.23
2022-11-29T16:39:10.074Z,29.10
2022-11-29T16:41:40.811Z,29.48
2022-11-29T16:44:14.199Z,29.98
2022-11-29T16:46:45.976Z,29.42
2022-11-29T16:49:37.134Z,29.25
2022-11-29T16:52:27.222Z,30.57
2022-11-29T16:54:58.109Z,30.23
2022-11-29T16:57:30.109Z,28.87
2022-11-29T17:00:00.606Z,28.52
2022-11-29T17:02:31.551Z,30.17
2022-11-29T17:05:02.107Z,31.40
2022-11-29T17:07:35.653Z,35.20
2022-11-29T17:10:09.298Z,32.15
2022-11-29T17:12:44.769Z,32.53
2022-11-29T17:15:13.462Z,32.42
2022-11-29T17:17:44.756Z,33.35
2022-11-29T17:20:15.246Z,31.82
2022-11-29T17:22:45.881Z,31.97
2022-11-29T17:25:16.373Z,31.42
2022-11-29T17:27:46.874Z,28.55
2022-11-29T17:30:17.849Z,30.80
2022-11-29T17:32:48.433Z,29.95
2022-11-29T17:35:18.986Z,29.00
2022-11-29T17:37:50.703Z,28.27
2022-11-29T17:40:22.300Z,27.93
2022-11-29T17:42:54.068Z,26.95
2022-11-29T17:45:24.555Z,29.05
2022-11-29T17:47:54.949Z,28.65
2022-11-29T17:50:25.410Z,27.93
2022-11-29T17:52:55.977Z,26.73
2022-11-29T17:55:29.561Z,28.80
2022-11-29T17:57:58.689Z,29.87
2022-11-29T18:00:30.325Z,29.12
2022-11-29T18:03:00.816Z,28.98
2022-11-29T18:05:34.462Z,28.05
2022-11-29T18:08:05.422Z,30.72
2022-11-29T18:10:36.484Z,31.12
2022-11-29T18:13:07.066Z,30.72
2022-11-29T18:15:37.914Z,30.37
2022-11-29T18:18:08.524Z,30.27
2022-11-29T18:20:38.955Z,28.47
2022-11-29T18:23:10.551Z,30.52
2022-11-29T18:25:40.895Z,31.73
2022-11-29T18:28:11.532Z,29.05
2022-11-29T18:30:42.256Z,30.55
2022-11-29T18:33:12.882Z,30.02
2022-11-29T18:35:43.374Z,46.77
2022-11-29T18:38:16.064Z,37.53
2022-11-29T18:40:46.857Z,33.10
2022-11-29T18:43:18.053Z,35.03
2022-11-29T18:45:49.682Z,33.15
2022-11-29T18:48:20.594Z,32.78
2022-11-29T18:50:51.143Z,34.48
2022-11-29T18:53:21.730Z,33.95
2022-11-29T18:55:55.116Z,33.23
2022-11-29T18:58:25.647Z,33.15
2022-11-29T19:00:57.636Z,33.13
2022-11-29T19:03:29.359Z,33.70
2022-11-29T19:05:59.842Z,36.98
2022-11-29T19:08:30.523Z,36.03
2022-11-29T19:11:02.977Z,34.98
2022-11-29T19:13:34.005Z,33.53
2022-11-29T19:16:08.303Z,34.73
2022-11-29T19:18:40.056Z,34.15
2022-11-29T19:21:13.442Z,32.58
2022-11-29T19:23:48.091Z,22.77
2022-11-29T19:26:18.556Z,30.62
2022-11-29T19:28:49.777Z,29.00
2022-11-29T19:31:23.441Z,30.95
2022-11-29T19:33:54.816Z,31.70
2022-11-29T19:36:27.959Z,31.15
2022-11-29T19:39:00.199Z,29.30
2022-11-29T19:41:33.394Z,28.52
2022-11-29T19:44:06.708Z,29.98
2022-11-29T19:46:41.528Z,28.42
2022-11-29T19:49:13.724Z,30.95
2022-11-29T19:51:45.460Z,29.67
2022-11-29T19:54:15.908Z,31.25
2022-11-29T19:56:46.340Z,29.98
2022-11-29T19:59:18.813Z,30.30
2022-11-29T20:01:49.351Z,29.48
2022-11-29T20:04:19.931Z,30.62
2022-11-29T20:06:51.796Z,28.52
2022-11-29T20:09:26.850Z,29.92
2022-11-29T20:11:57.457Z,29.37
2022-11-29T20:14:28.045Z,29.90
2022-11-29T20:16:58.541Z,30.45
2022-11-29T20:19:30.449Z,30.48
2022-11-29T20:22:00.867Z,30.32
2022-11-29T20:24:38.197Z,28.20
2022-11-29T20:27:03.594Z,29.42
2022-11-29T20:29:36.233Z,29.63
2022-11-29T20:32:11.172Z,29.45
2022-11-29T20:34:46.288Z,28.20
2022-11-29T20:37:43.612Z,29.02
2022-11-29T20:40:19.585Z,29.27
2022-11-29T20:43:06.915Z,30.02
2022-11-29T20:45:46.286Z,29.82
2022-11-29T20:51:00.994Z,29.65
2022-11-29T20:53:40.593Z,30.23
2022-11-29T20:56:13.851Z,31.33
2022-11-29T20:58:47.546Z,34.18
2022-11-29T21:01:20.981Z,32.25
2022-11-29T21:03:54.970Z,30.95
2022-11-29T21:06:26.296Z,31.02
2022-11-29T21:08:58.726Z,31.57
2022-11-29T21:11:34.444Z,31.80
2022-11-29T21:14:13.535Z,33.88
2022-11-29T21:16:46.614Z,34.35
2022-11-29T21:19:22.843Z,31.95
2022-11-29T21:22:19.289Z,33.08
2022-11-29T21:25:15.554Z,30.50
2022-11-29T21:27:51.393Z,31.97
2022-11-29T21:30:28.360Z,31.87
2022-11-29T21:33:00.637Z,32.25
2022-11-29T21:35:39.808Z,32.65
2022-11-29T21:38:14.115Z,31.77
2022-11-29T21:40:46.147Z,31.30
2022-11-29T21:43:20.706Z,32.05
2022-11-29T21:45:53.799Z,30.65
2022-11-29T21:48:38.510Z,30.82
2022-11-29T21:51:15.557Z,30.70
2022-11-29T21:53:47.617Z,28.52
2022-11-29T21:56:19.181Z,30.00
2022-11-29T21:58:53.112Z,30.25
2022-11-29T22:01:27.507Z,29.25
2022-11-29T22:04:03.834Z,29.98
2022-11-29T22:06:38.332Z,30.00
2022-11-29T22:09:10.603Z,31.82
2022-11-29T22:11:43.941Z,30.52
2022-11-29T22:14:21.190Z,30.67
2022-11-29T22:17:03.794Z,31.80
2022-11-29T22:19:37.192Z,31.30
2022-11-29T22:22:11.718Z,31.35
2022-11-29T22:24:45.679Z,31.35
2022-11-29T22:27:19.686Z,32.60
2022-11-29T22:29:55.998Z,32.03
2022-11-29T22:32:27.665Z,32.03
2022-11-29T22:35:09.870Z,34.27
2022-11-29T22:37:48.013Z,31.55
2022-11-29T22:40:23.483Z,30.85
2022-11-29T22:42:57.179Z,32.05
2022-11-29T22:45:36.893Z,34.18
2022-11-29T22:48:12.689Z,33.53
2022-11-29T22:50:48.873Z,31.85
2022-11-29T22:53:24.329Z,32.25
2022-11-29T22:58:58.330Z,33.18
2022-11-29T23:01:33.460Z,33.20
2022-11-29T23:04:08.740Z,34.83
2022-11-29T23:09:17.985Z,36.42
2022-11-29T23:11:56.873Z,35.00
2022-11-29T23:14:29.229Z,36.05
2022-11-29T23:17:10.997Z,37.15
2022-11-29T23:19:45.606Z,36.88
2022-11-29T23:22:18.917Z,35.25
2022-11-29T23:24:52.421Z,35.13
2022-11-29T23:27:26.179Z,33.55
2022-11-29T23:30:00.204Z,33.27
2022-11-29T23:32:33.605Z,34.85
2022-11-29T23:35:05.798Z,33.33
2022-11-29T23:37:36.261Z,33.48
2022-11-29T23:40:07.778Z,31.95
2022-11-29T23:42:42.432Z,32.75
2022-11-29T23:45:12.253Z,32.70
2022-11-29T23:47:42.733Z,32.67
2022-11-29T23:50:13.417Z,32.38
2022-11-29T23:52:44.202Z,33.48
2022-11-29T23:55:15.130Z,33.98
2022-11-29T23:57:46.717Z,34.43
